Time;durP1;ratioP1;P1;durP2;ratioP2;P2;SDS_P1;SDS_P2;PMS_P1;PMS_P2;Temp;Humidity;BMP_temperature;BMP_pressure;BME280_temperature;BME280_humidity;BME280_pressure;Samples;Min_cycle;Max_cycle;Signal;HPM_P1;HPM_P2
2022/10/31 00:06:31;;;;;;;12.90;7.80;;;;;15.00;99364.00;;;;16567971;28;20232;-51
2022/10/31 00:14:33;;;;;;;11.70;7.83;;;;;14.40;99367.00;;;;16541153;28;20214;-50
2022/10/31 00:22:37;;;;;;;13.80;9.43;;;;;15.00;99360.00;;;;16562005;28;20219;-50
2022/10/31 00:30:39;;;;;;;11.70;10.50;;;;;15.20;99367.00;;;;16565918;28;20223;-50
2022/10/31 00:38:44;;;;;;;13.47;11.80;;;;;15.10;99366.00;;;;16558903;28;20694;-51
2022/10/31 00:46:46;;;;;;;14.47;11.07;;;;;14.90;99365.00;;;;16555608;28;20223;-50
2022/10/31 00:54:50;;;;;;;15.50;10.67;;;;;14.80;99369.00;;;;16550422;28;20208;-50
2022/10/31 01:02:52;;;;;;;12.83;10.90;;;;;14.80;99368.00;;;;16564613;28;20191;-50
2022/10/31 01:11:08;;;;;;;15.30;9.53;;;;;14.90;99358.00;;;;16567606;28;20238;-50
2022/10/31 01:19:11;;;;;;;9.93;8.93;;;;;14.90;99354.00;;;;16551065;28;20809;-50
2022/10/31 01:27:14;;;;;;;17.13;10.37;;;;;14.90;99346.00;;;;16564723;28;20227;-51
2022/10/31 01:35:17;;;;;;;20.20;10.73;;;;;14.60;99360.00;;;;16554461;28;20236;-51
2022/10/31 01:43:21;;;;;;;10.80;8.20;;;;;14.40;99352.00;;;;16548140;28;20597;-51
2022/10/31 01:51:26;;;;;;;10.23;7.67;;;;;14.20;99354.00;;;;16529821;28;20782;-49
2022/10/31 01:59:32;;;;;;;12.90;8.73;;;;;14.70;99342.00;;;;16531435;28;20232;-50
2022/10/31 02:07:39;;;;;;;14.10;10.17;;;;;14.60;99344.00;;;;16541244;28;20749;-50
2022/10/31 02:15:45;;;;;;;12.63;10.27;;;;;14.50;99339.00;;;;16532652;28;20251;-51
2022/10/31 02:24:21;;;;;;;10.83;8.33;;;;;14.50;99340.00;;;;16524356;28;20218;-50
2022/10/31 02:32:28;;;;;;;10.97;9.87;;;;;14.40;99338.00;;;;16525129;28;20600;-51
2022/10/31 02:40:35;;;;;;;13.23;9.73;;;;;14.40;99332.00;;;;16535254;28;20238;-50
2022/10/31 02:49:04;;;;;;;12.83;8.50;;;;;14.40;99347.00;;;;16532957;28;20251;-50
2022/10/31 02:57:09;;;;;;;13.83;10.47;;;;;14.50;99332.00;;;;16528408;28;20732;-51
2022/10/31 03:05:35;;;;;;;12.30;9.83;;;;;14.50;99338.00;;;;16543044;28;20258;-51
2022/10/31 03:13:42;;;;;;;9.67;8.77;;;;;14.60;99339.00;;;;16555815;28;20216;-50
2022/10/31 03:21:48;;;;;;;10.20;8.87;;;;;14.20;99329.00;;;;16551864;28;20771;-50
2022/10/31 03:29:55;;;;;;;13.43;9.33;;;;;13.90;99336.00;;;;16547130;28;20238;-50
2022/10/31 03:38:01;;;;;;;9.83;8.43;;;;;14.00;99341.00;;;;16546727;28;20721;-51
2022/10/31 03:46:05;;;;;;;11.60;8.70;;;;;13.90;99343.00;;;;16547967;28;20223;-50
2022/10/31 03:54:14;;;;;;;11.80;8.70;;;;;13.60;99346.00;;;;16540706;28;20234;-49
2022/10/31 04:02:19;;;;;;;11.30;8.07;;;;;13.30;99337.00;;;;16529101;28;20274;-49
2022/10/31 04:10:24;;;;;;;12.33;7.60;;;;;13.60;99338.00;;;;16533180;28;20318;-51
2022/10/31 04:18:27;;;;;;;11.37;7.80;;;;;13.00;99342.00;;;;16529061;28;20219;-50
2022/10/31 04:26:31;;;;;;;11.73;8.23;;;;;13.40;99329.00;;;;16535411;28;20229;-50
2022/10/31 04:34:34;;;;;;;11.03;8.80;;;;;13.50;99330.00;;;;16532061;28;20206;-51
2022/10/31 04:42:38;;;;;;;10.03;7.80;;;;;13.60;99319.00;;;;16525882;28;20233;-50
2022/10/31 04:50:42;;;;;;;13.10;8.60;;;;;13.70;99313.00;;;;16537327;28;20233;-50
2022/10/31 04:58:46;;;;;;;9.13;8.10;;;;;13.60;99299.00;;;;16544198;28;20238;-49
2022/10/31 05:06:48;;;;;;;10.47;8.40;;;;;13.50;99299.00;;;;16561917;28;20226;-51
2022/10/31 05:14:52;;;;;;;12.27;7.90;;;;;13.30;99305.00;;;;16575555;28;20280;-50
2022/10/31 05:23:17;;;;;;;12.07;8.67;;;;;13.50;99288.00;;;;16516887;28;20214;-50
2022/10/31 05:31:21;;;;;;;12.73;8.80;;;;;13.00;99306.00;;;;16534537;28;20865;-51
2022/10/31 05:39:26;;;;;;;10.10;7.33;;;;;13.20;99296.00;;;;16548029;28;20234;-49
2022/10/31 05:47:34;;;;;;;9.23;8.03;;;;;13.10;99284.00;;;;16542566;28;20317;-51
2022/10/31 05:56:02;;;;;;;10.70;8.73;;;;;13.30;99281.00;;;;16576207;28;20226;-50
2022/10/31 06:04:07;;;;;;;13.43;8.07;;;;;13.00;99289.00;;;;16550025;28;20290;-52
2022/10/31 06:12:12;;;;;;;10.40;8.33;;;;;12.90;99286.00;;;;16562213;28;20736;-51
2022/10/31 06:20:41;;;;;;;13.63;9.13;;;;;13.20;99286.00;;;;16546651;28;20219;-51
2022/10/31 06:28:44;;;;;;;8.33;7.43;;;;;12.90;99283.00;;;;16526144;28;20233;-50
2022/10/31 06:37:00;;;;;;;9.57;7.83;;;;;12.80;99273.00;;;;16536052;28;20697;-50
2022/10/31 06:45:05;;;;;;;12.40;8.23;;;;;12.80;99290.00;;;;16522756;28;20278;-52
2022/10/31 06:53:38;;;;;;;10.47;8.23;;;;;12.80;99289.00;;;;16520792;28;20235;-51
2022/10/31 07:01:43;;;;;;;9.37;8.10;;;;;12.90;99291.00;;;;16550640;28;20309;-50
2022/10/31 07:09:49;;;;;;;11.80;8.30;;;;;12.90;99289.00;;;;16561299;28;20233;-50
2022/10/31 07:17:59;;;;;;;8.40;7.07;;;;;13.20;99282.00;;;;16557148;28;20229;-51
2022/10/31 07:26:04;;;;;;;11.47;8.07;;;;;13.50;99290.00;;;;16545864;28;20246;-49
2022/10/31 07:34:15;;;;;;;12.80;7.60;;;;;13.50;99297.00;;;;16559143;28;20754;-51
2022/10/31 07:42:38;;;;;;;9.10;7.80;;;;;13.50;99286.00;;;;16554501;28;20226;-51
2022/10/31 07:50:41;;;;;;;16.00;8.70;;;;;13.70;99282.00;;;;16558074;28;20229;-49
2022/10/31 07:59:04;;;;;;;9.83;6.93;;;;;13.80;99282.00;;;;16563562;28;20383;-51
2022/10/31 08:07:06;;;;;;;12.10;7.57;;;;;13.70;99284.00;;;;16565373;28;20584;-49
2022/10/31 08:15:13;;;;;;;8.23;7.30;;;;;13.80;99289.00;;;;16568095;28;20602;-50
2022/10/31 08:23:16;;;;;;;9.47;7.33;;;;;14.30;99282.00;;;;16588016;28;20213;-50
2022/10/31 08:31:21;;;;;;;13.87;8.40;;;;;14.20;99275.00;;;;16565870;28;20235;-51
2022/10/31 08:39:23;;;;;;;10.83;7.53;;;;;14.50;99268.00;;;;16571689;28;20828;-49
2022/10/31 08:47:29;;;;;;;8.17;6.80;;;;;14.90;99254.00;;;;16564872;28;20698;-49
2022/10/31 08:55:33;;;;;;;11.27;7.47;;;;;15.00;99242.00;;;;16562126;28;20223;-49
2022/10/31 09:03:39;;;;;;;10.77;7.30;;;;;15.40;99232.00;;;;16570032;28;20786;-50
2022/10/31 09:11:43;;;;;;;9.50;6.80;;;;;15.30;99227.00;;;;16567681;28;20224;-50
2022/10/31 09:20:13;;;;;;;9.80;6.90;;;;;15.60;99239.00;;;;16533990;28;20211;-51
2022/10/31 09:28:18;;;;;;;12.67;6.60;;;;;16.20;99231.00;;;;16568854;28;20310;-49
2022/10/31 09:36:23;;;;;;;18.00;7.50;;;;;16.00;99225.00;;;;16564027;28;20234;-49
2022/10/31 09:44:31;;;;;;;11.07;8.10;;;;;16.00;99214.00;;;;16565001;28;20199;-50
2022/10/31 09:52:37;;;;;;;10.07;7.90;;;;;16.30;99218.00;;;;16551380;28;20227;-49
2022/10/31 10:00:44;;;;;;;9.00;6.80;;;;;16.80;99208.00;;;;16558125;28;20215;-50
2022/10/31 10:08:48;;;;;;;11.70;7.40;;;;;17.00;99195.00;;;;16556612;28;20305;-50
2022/10/31 10:17:26;;;;;;;9.97;7.87;;;;;17.70;99192.00;;;;16557688;28;20207;-50
2022/10/31 10:25:35;;;;;;;10.07;7.50;;;;;17.60;99184.00;;;;16555024;28;20251;-50
2022/10/31 10:33:40;;;;;;;13.53;7.60;;;;;18.10;99179.00;;;;16553763;28;20215;-51
2022/10/31 10:50:07;;;;;;;9.03;7.80;;;;;18.40;99165.00;;;;16562434;28;20295;-49
2022/10/31 10:58:12;;;;;;;9.20;7.87;;;;;18.40;99161.00;;;;16557154;28;20223;-47
2022/10/31 11:06:25;;;;;;;10.33;7.87;;;;;18.20;99147.00;;;;16558702;28;20225;-49
2022/10/31 11:14:30;;;;;;;10.57;7.00;;;;;18.30;99136.00;;;;16568686;28;20551;-50
2022/10/31 11:22:33;;;;;;;6.93;6.23;;;;;19.30;99120.00;;;;16563782;28;20588;-51
2022/10/31 11:30:47;;;;;;;11.33;6.70;;;;;19.80;99096.00;;;;16569788;28;20322;-51
2022/10/31 11:38:50;;;;;;;10.97;7.60;;;;;19.80;99085.00;;;;16565779;28;20265;-51
2022/10/31 11:46:57;;;;;;;9.10;7.00;;;;;20.60;99071.00;;;;16568776;28;20231;-51
2022/10/31 11:55:03;;;;;;;11.13;6.87;;;;;20.60;99067.00;;;;16561916;28;20579;-49
2022/10/31 12:03:14;;;;;;;10.97;7.53;;;;;20.90;99051.00;;;;16567474;28;20200;-50
2022/10/31 12:11:28;;;;;;;11.03;6.90;;;;;20.80;99043.00;;;;16567172;28;20297;-50
2022/10/31 12:19:37;;;;;;;10.93;8.20;;;;;21.30;99034.00;;;;16565893;28;20707;-49
2022/10/31 12:27:53;;;;;;;8.00;6.37;;;;;21.50;99017.00;;;;16566172;28;20223;-49
2022/10/31 12:36:08;;;;;;;9.90;7.47;;;;;21.00;99013.00;;;;16567082;28;20314;-50
2022/10/31 12:44:23;;;;;;;14.33;7.03;;;;;21.00;99002.00;;;;16556245;28;20206;-49
2022/10/31 12:52:39;;;;;;;10.70;8.43;;;;;21.10;98981.00;;;;16569479;28;20223;-50
2022/10/31 13:00:44;;;;;;;9.00;6.53;;;;;20.80;98969.00;;;;16571017;28;20274;-50
2022/10/31 13:08:52;;;;;;;11.53;6.90;;;;;20.70;98958.00;;;;16565720;28;20782;-50
2022/10/31 13:16:56;;;;;;;10.80;6.90;;;;;20.70;98953.00;;;;16536490;28;20653;-49
2022/10/31 13:25:05;;;;;;;9.70;7.13;;;;;20.60;98943.00;;;;16541322;28;20227;-49
2022/10/31 13:33:13;;;;;;;9.80;8.00;;;;;20.60;98935.00;;;;16527585;28;20215;-49
2022/10/31 13:41:30;;;;;;;9.57;7.60;;;;;20.90;98936.00;;;;16534917;28;20795;-50
2022/10/31 13:49:40;;;;;;;9.03;7.27;;;;;22.20;98927.00;;;;16542134;28;20350;-50
2022/10/31 13:57:45;;;;;;;14.90;7.73;;;;;22.60;98914.00;;;;16551992;28;20620;-48
2022/10/31 14:05:54;;;;;;;12.23;8.03;;;;;22.10;98903.00;;;;16552800;28;20285;-51
2022/10/31 14:13:58;;;;;;;11.20;9.93;;;;;22.40;98905.00;;;;16554087;28;20241;-50
2022/10/31 14:22:01;;;;;;;12.43;9.33;;;;;23.10;98897.00;;;;16554364;28;20230;-51
2022/10/31 14:30:16;;;;;;;12.70;8.27;;;;;21.90;98880.00;;;;16544318;28;20230;-49
2022/10/31 14:38:42;;;;;;;13.30;8.37;;;;;22.20;98887.00;;;;16549768;28;20313;-50
2022/10/31 14:46:52;;;;;;;16.67;10.20;;;;;22.10;98889.00;;;;16550385;28;20598;-50
2022/10/31 14:54:56;;;;;;;15.83;9.80;;;;;21.70;98878.00;;;;16566558;28;20706;-51
2022/10/31 15:03:06;;;;;;;22.27;11.43;;;;;21.40;98883.00;;;;16562726;28;20196;-50
2022/10/31 15:11:13;;;;;;;17.60;8.70;;;;;20.20;98874.00;;;;16568712;28;20228;-51
2022/10/31 15:19:23;;;;;;;12.23;8.80;;;;;19.20;98879.00;;;;16556938;28;20315;-49
2022/10/31 15:27:26;;;;;;;18.33;13.60;;;;;19.30;98886.00;;;;16568944;28;20246;-50
2022/10/31 15:35:31;;;;;;;12.67;9.87;;;;;19.10;98871.00;;;;16551707;28;20232;-50
2022/10/31 15:43:36;;;;;;;23.97;15.50;;;;;18.70;98868.00;;;;16558036;28;20563;-49
2022/10/31 15:51:40;;;;;;;13.20;11.80;;;;;18.60;98875.00;;;;16570017;28;20227;-50
2022/10/31 15:59:47;;;;;;;24.17;17.00;;;;;17.60;98883.00;;;;16559873;28;20238;-49
2022/10/31 16:07:52;;;;;;;26.53;16.00;;;;;17.40;98867.00;;;;16554726;28;20715;-49
2022/10/31 16:15:57;;;;;;;32.60;21.07;;;;;17.10;98876.00;;;;16569454;28;20329;-50
2022/10/31 16:24:04;;;;;;;32.03;19.47;;;;;16.70;98880.00;;;;16565251;28;20744;-50
2022/10/31 16:32:21;;;;;;;31.43;20.70;;;;;16.60;98874.00;;;;16557819;28;20227;-51
2022/10/31 16:40:26;;;;;;;30.57;23.00;;;;;16.70;98869.00;;;;16571193;28;20231;-50
2022/10/31 16:48:29;;;;;;;25.57;15.80;;;;;16.20;98876.00;;;;16569727;28;20277;-50
2022/10/31 16:56:34;;;;;;;23.50;12.60;;;;;16.10;98882.00;;;;16578390;28;20713;-49
2022/10/31 17:04:37;;;;;;;22.57;17.40;;;;;16.10;98876.00;;;;16574615;28;22017;-50
2022/10/31 17:12:42;;;;;;;20.70;14.77;;;;;16.00;98858.00;;;;16578931;28;20579;-50
2022/10/31 17:20:45;;;;;;;17.70;15.20;;;;;15.40;98855.00;;;;16571259;28;20293;-49
2022/10/31 17:28:49;;;;;;;20.70;15.70;;;;;15.20;98857.00;;;;16575467;28;20226;-51
2022/10/31 17:36:52;;;;;;;22.20;14.43;;;;;15.30;98846.00;;;;16572744;28;20774;-49
2022/10/31 17:44:55;;;;;;;20.50;13.70;;;;;14.90;98876.00;;;;16569320;28;20197;-49
2022/10/31 17:52:59;;;;;;;17.13;14.63;;;;;15.00;98871.00;;;;16570089;28;20216;-49
2022/10/31 18:01:08;;;;;;;15.00;12.27;;;;;15.10;98850.00;;;;16573819;28;20221;-50
2022/10/31 18:09:11;;;;;;;19.70;16.93;;;;;14.70;98842.00;;;;16573586;28;20611;-50
2022/10/31 18:17:14;;;;;;;24.37;17.50;;;;;14.70;98839.00;;;;16570410;28;20891;-50
2022/10/31 18:25:17;;;;;;;20.13;15.67;;;;;14.50;98852.00;;;;16568290;28;20234;-49
2022/10/31 18:33:21;;;;;;;24.20;18.60;;;;;14.70;98838.00;;;;16568527;28;20253;-49
2022/10/31 18:41:23;;;;;;;18.63;15.50;;;;;15.00;98799.00;;;;16566884;28;20345;-49
2022/10/31 18:49:31;;;;;;;23.17;16.93;;;;;14.90;98784.00;;;;16567090;28;20720;-49
2022/10/31 18:57:33;;;;;;;25.17;19.37;;;;;15.00;98766.00;;;;16573653;28;20602;-49
2022/10/31 19:05:37;;;;;;;31.20;23.40;;;;;14.70;98773.00;;;;16564750;28;20220;-49
2022/10/31 19:13:41;;;;;;;34.33;27.20;;;;;15.00;98770.00;;;;16569400;28;20284;-50
2022/10/31 19:21:45;;;;;;;20.43;16.13;;;;;15.30;98785.00;;;;16566310;28;20217;-49
2022/10/31 19:29:47;;;;;;;22.70;19.27;;;;;15.50;98805.00;;;;16569892;28;20219;-49
2022/10/31 19:37:51;;;;;;;18.80;15.80;;;;;15.50;98809.00;;;;16558093;28;20237;-50
2022/10/31 19:45:55;;;;;;;20.70;16.13;;;;;15.20;98868.00;;;;16551120;28;20326;-48
2022/10/31 19:53:59;;;;;;;19.03;14.23;;;;;15.90;98846.00;;;;16549224;28;20227;-49
2022/10/31 20:02:01;;;;;;;17.97;15.30;;;;;15.50;98851.00;;;;16559266;28;20219;-50
2022/10/31 20:10:07;;;;;;;17.73;15.90;;;;;16.10;98857.00;;;;16549609;28;20246;-49
2022/10/31 20:18:09;;;;;;;19.60;15.87;;;;;15.00;98857.00;;;;16547951;28;20263;-49
2022/10/31 20:26:15;;;;;;;19.00;13.43;;;;;15.40;98875.00;;;;16552468;28;20274;-50
2022/10/31 20:34:17;;;;;;;17.63;14.57;;;;;15.60;98871.00;;;;16548169;28;20234;-50
2022/10/31 20:42:22;;;;;;;19.53;16.53;;;;;15.50;98865.00;;;;16551993;28;20216;-50
2022/10/31 20:50:25;;;;;;;19.47;17.47;;;;;15.20;98861.00;;;;16545962;28;20220;-50
2022/10/31 20:58:29;;;;;;;19.60;16.03;;;;;14.80;98855.00;;;;16554980;28;20876;-50
2022/10/31 21:06:32;;;;;;;29.83;21.50;;;;;15.40;98853.00;;;;16558645;28;20222;-49
2022/10/31 21:14:36;;;;;;;19.80;16.93;;;;;15.80;98865.00;;;;16559499;28;20218;-50
2022/10/31 21:22:39;;;;;;;19.97;17.80;;;;;15.70;98884.00;;;;16574642;28;20216;-50
2022/10/31 21:30:43;;;;;;;23.03;16.77;;;;;15.90;98873.00;;;;16571887;28;20219;-50
2022/10/31 21:38:50;;;;;;;24.67;17.10;;;;;15.00;98876.00;;;;16571310;28;20230;-50
2022/10/31 21:46:54;;;;;;;28.80;23.03;;;;;14.60;98880.00;;;;16557541;28;20236;-50
2022/10/31 21:54:56;;;;;;;19.00;13.83;;;;;14.00;98894.00;;;;16561919;28;20229;-49
2022/10/31 22:03:00;;;;;;;25.17;17.70;;;;;13.90;98887.00;;;;16566092;28;20293;-50
2022/10/31 22:11:02;;;;;;;21.07;18.90;;;;;14.20;98887.00;;;;16567721;28;20235;-50
2022/10/31 22:19:07;;;;;;;18.63;16.63;;;;;14.00;98878.00;;;;16565679;28;20223;-50
2022/10/31 22:27:09;;;;;;;19.60;17.53;;;;;14.30;98871.00;;;;16564134;28;20218;-49
2022/10/31 22:35:13;;;;;;;17.57;15.73;;;;;14.30;98863.00;;;;16568593;28;20230;-50
2022/10/31 22:43:16;;;;;;;16.77;14.50;;;;;14.30;98867.00;;;;16549733;28;20207;-50
2022/10/31 22:51:21;;;;;;;19.37;15.13;;;;;14.10;98862.00;;;;16561788;28;20313;-50
2022/10/31 22:59:23;;;;;;;17.10;14.53;;;;;14.80;98855.00;;;;16531938;28;20220;-49
2022/10/31 23:07:27;;;;;;;21.00;17.10;;;;;14.40;98858.00;;;;16568456;28;20596;-50
2022/10/31 23:15:29;;;;;;;20.50;14.80;;;;;13.80;98856.00;;;;16566543;28;20237;-50
2022/10/31 23:23:36;;;;;;;19.70;13.40;;;;;14.40;98863.00;;;;16573410;28;20209;-49
2022/10/31 23:31:38;;;;;;;19.63;15.33;;;;;14.10;98865.00;;;;16564208;28;20377;-50
2022/10/31 23:39:42;;;;;;;16.33;13.57;;;;;14.40;98875.00;;;;16563659;28;20219;-49
2022/10/31 23:47:44;;;;;;;21.97;17.80;;;;;14.60;98870.00;;;;16559718;28;20227;-50
2022/10/31 23:55:48;;;;;;;27.97;19.93;;;;;14.70;98853.00;;;;16562797;28;20628;-50
